Accueil
METAR-TAF:

METAR-TAF

Aéroports :

Brighton, Angleterre

Aéroport de Shoreham

latitude: 50-50N, longitude: 000-17W, altitude: 2 m

Observation

Le bulletin a été fait il y a 12 heures et 6 minutes, à 18:50 UTC
Vent 13 kt de ouest/sud-ouest
Température 20°C
Humidité 78%
Pression 1013 hPa
Visibilité 10 km ou plus
Nuages épars à une hauteur de 3500 ft

METAR: EGKA 221850Z 25013KT 9999 SCT035 20/16 Q1013

Heure: 07:56 (06:56 UTC)

Prévision

Le bulletin a été fait il y a 16 heures et 42 minutes, à 14:14 UTC
Prévision valable du 22 à 15 UTC au 22 à 19 UTC
Vent 14 kt de ouest/sud-ouest
Visibilité 10 km ou plus
Nuages épars à une hauteur de 3000 ft
Temporairement
du 22 à 15 UTC au 22 à 19 UTC
Vent 17 kt de ouest/sud-ouest avec des rafales jusqu'à 27 kt

TAF: EGKA 221414Z 2215/2219 24014KT 9999 SCT030 TEMPO 2215/2219 25017G27KT

Observations et prévisions météorologiques de plus de 4000 aéroports (messages METAR et TAF).

Les stations disponibles sont représentées par des disques jaunes et rouges sur la carte.

Passer la souris dessus pour voir le nom de la station.

Cliquer dessus pour voir les observations et prévisions météorologiques.

Pour changer de carte: cliquez sur les boutons verts avec une croix noire pour zoomer, sur le bouton vert avec un tiret pour effectuer un zoom arrière, ou sur les flèches vertes pour les cartes adjacentes.


METAR-TAF: